createdAt,value
2023-04-26T00:03:46.700Z,76.65
2023-04-26T00:08:49.277Z,76.96
2023-04-26T00:13:51.805Z,77.11
2023-04-26T00:18:55.025Z,77.55
2023-04-26T00:23:57.830Z,77.70
2023-04-26T00:29:00.013Z,77.68
2023-04-26T00:34:02.182Z,77.44
2023-04-26T00:39:04.394Z,77.27
2023-04-26T00:44:06.784Z,77.76
2023-04-26T00:49:09.741Z,77.81
2023-04-26T00:54:13.963Z,79.31
2023-04-26T00:59:16.309Z,80.47
2023-04-26T01:04:19.246Z,81.51
2023-04-26T01:09:22.391Z,82.16
2023-04-26T01:14:25.284Z,83.04
2023-04-26T01:19:27.462Z,83.66
2023-04-26T01:24:30.222Z,84.15
2023-04-26T01:29:32.472Z,83.04
2023-04-26T01:34:34.736Z,83.26
2023-04-26T01:39:37.127Z,83.64
2023-04-26T01:44:39.643Z,84.11
2023-04-26T01:49:41.887Z,83.23
2023-04-26T01:54:44.149Z,82.62
2023-04-26T01:59:46.433Z,82.19
2023-04-26T02:04:48.583Z,82.38
2023-04-26T02:09:50.842Z,80.49
2023-04-26T02:14:53.057Z,80.29
2023-04-26T02:19:55.448Z,79.35
2023-04-26T02:24:57.646Z,77.82
2023-04-26T02:29:59.904Z,78.12
2023-04-26T02:35:02.214Z,77.86
2023-04-26T02:40:05.898Z,78.57
2023-04-26T02:45:08.611Z,78.34
2023-04-26T02:50:11.030Z,77.39
2023-04-26T02:55:13.415Z,77.80
2023-04-26T03:00:15.738Z,77.08
2023-04-26T03:05:17.938Z,76.27
2023-04-26T03:10:20.037Z,76.12
2023-04-26T03:15:22.317Z,76.27
2023-04-26T03:20:25.558Z,76.10
2023-04-26T03:25:27.661Z,75.38
2023-04-26T03:30:30.035Z,75.64
2023-04-26T03:35:32.216Z,75.88
2023-04-26T03:40:34.421Z,76.27
2023-04-26T03:45:37.290Z,77.49
2023-04-26T03:50:39.669Z,77.38
2023-04-26T03:55:42.136Z,78.22
2023-04-26T04:00:44.555Z,78.70
2023-04-26T04:05:46.788Z,78.68
2023-04-26T04:10:49.144Z,78.72
2023-04-26T04:15:51.827Z,78.17
2023-04-26T04:20:54.039Z,78.01
2023-04-26T04:25:56.225Z,77.97
2023-04-26T04:30:58.497Z,76.32
2023-04-26T04:36:00.697Z,75.75
2023-04-26T04:41:02.884Z,74.00
2023-04-26T04:46:05.195Z,74.19
2023-04-26T04:51:08.190Z,73.63
2023-04-26T04:56:10.344Z,73.74
2023-04-26T05:01:12.545Z,74.71
2023-04-26T05:06:14.854Z,76.00
2023-04-26T05:11:17.190Z,77.03
2023-04-26T05:16:19.532Z,77.60
2023-04-26T05:21:22.170Z,78.46
2023-04-26T05:26:24.322Z,77.78
2023-04-26T05:31:27.607Z,77.16
2023-04-26T05:36:30.112Z,75.75
2023-04-26T05:41:32.561Z,74.21
2023-04-26T05:46:35.248Z,73.15
2023-04-26T05:51:37.591Z,73.16
2023-04-26T05:56:39.954Z,72.05
2023-04-26T06:01:42.351Z,70.83
2023-04-26T06:06:44.583Z,70.29
2023-04-26T06:11:46.816Z,69.84
2023-04-26T06:16:49.095Z,68.47
2023-04-26T06:21:54.926Z,68.02
2023-04-26T06:26:57.173Z,66.52
2023-04-26T06:31:59.436Z,65.12
2023-04-26T06:37:01.826Z,64.33
2023-04-26T06:42:07.477Z,62.95
2023-04-26T06:47:11.262Z,62.14
2023-04-26T06:52:13.454Z,61.62
2023-04-26T06:57:15.896Z,60.80
2023-04-26T07:02:18.577Z,60.59
2023-04-26T07:07:20.845Z,52.07
2023-04-26T07:12:23.021Z,50.29
2023-04-26T07:17:25.177Z,48.85
2023-04-26T07:22:27.310Z,48.68
2023-04-26T07:27:30.761Z,48.36
2023-04-26T07:32:33.032Z,46.35
2023-04-26T07:37:35.336Z,45.24
2023-04-26T07:42:37.502Z,41.32
2023-04-26T07:47:39.717Z,37.69
2023-04-26T07:52:43.419Z,35.47
2023-04-26T07:57:46.084Z,34.29
2023-04-26T08:02:48.645Z,34.29
2023-04-26T08:07:50.988Z,33.53
2023-04-26T08:12:53.275Z,31.81
2023-04-26T08:17:55.649Z,31.37
2023-04-26T08:22:58.328Z,30.59
2023-04-26T08:28:00.856Z,30.76
2023-04-26T08:33:03.533Z,31.63
2023-04-26T08:38:05.748Z,29.69
2023-04-26T08:43:11.036Z,29.87
2023-04-26T08:48:16.213Z,27.76
2023-04-26T08:53:18.575Z,27.47
2023-04-26T08:58:21.677Z,25.83
2023-04-26T09:03:26.429Z,25.82
2023-04-26T09:08:29.719Z,26.21
2023-04-26T09:13:31.879Z,24.71
2023-04-26T09:18:34.284Z,24.31
2023-04-26T09:23:36.797Z,25.53
2023-04-26T09:28:38.962Z,24.37
2023-04-26T09:33:59.306Z,24.67
2023-04-26T09:39:01.604Z,22.92
2023-04-26T09:44:03.895Z,23.71
2023-04-26T09:49:06.422Z,22.90
2023-04-26T09:54:08.637Z,21.93
2023-04-26T09:59:11.674Z,20.34
2023-04-26T10:04:14.023Z,19.63
2023-04-26T10:09:16.222Z,20.13
2023-04-26T10:14:18.472Z,21.51
2023-04-26T10:19:22.338Z,21.95
2023-04-26T10:24:24.602Z,21.02
2023-04-26T10:29:47.444Z,24.25
2023-04-26T10:35:16.532Z,22.00
2023-04-26T10:40:25.639Z,23.14
2023-04-26T10:45:29.933Z,21.04
2023-04-26T10:50:32.170Z,17.79
2023-04-26T10:55:43.677Z,18.08
2023-04-26T11:01:08.426Z,18.28
2023-04-26T11:06:13.957Z,19.17
2023-04-26T11:11:19.414Z,24.12
2023-04-26T11:16:21.679Z,24.94
2023-04-26T11:21:23.866Z,22.80
2023-04-26T11:26:33.104Z,20.98
2023-04-26T11:31:36.561Z,27.09
2023-04-26T11:36:38.744Z,29.75
2023-04-26T11:41:41.176Z,30.35
2023-04-26T11:46:43.573Z,26.21
2023-04-26T11:51:49.693Z,26.22
2023-04-26T11:56:51.908Z,26.83
2023-04-26T12:01:55.208Z,27.30
2023-04-26T12:06:58.511Z,24.08
2023-04-26T12:12:04.211Z,26.57
2023-04-26T12:17:07.980Z,27.19
2023-04-26T12:22:10.389Z,24.53
2023-04-26T12:27:21.978Z,25.99
2023-04-26T12:32:24.123Z,29.12
2023-04-26T12:37:26.236Z,28.24
2023-04-26T12:42:28.427Z,24.68
2023-04-26T12:47:31.988Z,21.79
2023-04-26T12:52:34.413Z,24.23
2023-04-26T12:57:38.177Z,28.65
2023-04-26T13:02:41.152Z,28.63
2023-04-26T13:07:44.524Z,21.03
2023-04-26T13:12:46.689Z,23.23
2023-04-26T13:17:49.135Z,26.77
2023-04-26T13:22:51.473Z,25.78
2023-04-26T13:27:54.847Z,25.19
2023-04-26T13:33:00.096Z,19.42
2023-04-26T13:38:03.054Z,21.72
2023-04-26T13:43:06.239Z,20.06
2023-04-26T13:48:08.515Z,22.45
2023-04-26T13:53:11.358Z,26.47
2023-04-26T13:58:13.765Z,29.76
2023-04-26T14:03:16.334Z,30.84
2023-04-26T14:08:18.745Z,30.15
2023-04-26T14:13:21.451Z,29.06
2023-04-26T14:18:23.578Z,28.13
2023-04-26T14:23:25.974Z,28.69
2023-04-26T14:28:28.232Z,31.43
2023-04-26T14:33:30.616Z,31.68
2023-04-26T14:38:33.064Z,27.82
2023-04-26T14:43:35.198Z,28.92
2023-04-26T14:48:37.449Z,28.99
2023-04-26T14:53:39.601Z,30.05
2023-04-26T14:58:44.068Z,31.97
2023-04-26T15:03:46.950Z,33.51
2023-04-26T15:08:49.372Z,33.46
2023-04-26T15:13:51.655Z,32.41
2023-04-26T15:18:53.883Z,31.61
2023-04-26T15:23:56.408Z,32.55
2023-04-26T15:28:58.543Z,33.81
2023-04-26T15:34:00.725Z,34.70
2023-04-26T15:39:03.211Z,34.59
2023-04-26T15:44:05.504Z,34.25
2023-04-26T15:49:07.677Z,32.90
2023-04-26T15:54:09.852Z,28.55
2023-04-26T15:59:12.110Z,27.99
2023-04-26T16:04:14.360Z,28.21
2023-04-26T16:09:25.359Z,28.47
2023-04-26T16:14:28.250Z,29.05
2023-04-26T16:19:31.018Z,27.94
2023-04-26T16:24:33.252Z,29.50
2023-04-26T16:29:35.360Z,31.41
2023-04-26T16:34:40.552Z,32.32
2023-04-26T16:39:43.451Z,33.29
2023-04-26T16:44:46.017Z,32.11
2023-04-26T16:49:48.189Z,32.80
2023-04-26T16:54:50.728Z,33.91
2023-04-26T16:59:52.895Z,35.10
2023-04-26T17:04:55.321Z,35.58
2023-04-26T17:09:57.836Z,35.57
2023-04-26T17:15:01.185Z,35.89
2023-04-26T17:20:10.152Z,36.24
2023-04-26T17:25:13.621Z,36.66
2023-04-26T17:30:16.089Z,37.90
2023-04-26T17:35:18.318Z,37.05
2023-04-26T17:40:21.126Z,37.86
2023-04-26T17:45:23.544Z,38.33
2023-04-26T17:50:26.002Z,38.17
2023-04-26T17:55:28.184Z,38.67
2023-04-26T18:00:30.449Z,38.29
2023-04-26T18:05:33.068Z,37.83
2023-04-26T18:10:35.201Z,38.37
2023-04-26T18:15:37.545Z,38.95
2023-04-26T18:20:39.646Z,39.14
2023-04-26T18:25:42.369Z,39.25
2023-04-26T18:30:44.717Z,39.91
2023-04-26T18:35:48.884Z,40.44
2023-04-26T18:40:51.236Z,40.78
2023-04-26T18:45:56.593Z,40.67
2023-04-26T18:50:58.747Z,40.38
2023-04-26T18:56:00.982Z,40.09
2023-04-26T19:01:03.225Z,40.35
2023-04-26T19:06:09.574Z,40.46
2023-04-26T19:11:12.558Z,40.70
2023-04-26T19:16:14.729Z,40.95
2023-04-26T19:21:16.952Z,40.61
2023-04-26T19:26:19.134Z,41.43
2023-04-26T19:31:21.773Z,41.55
2023-04-26T19:36:24.902Z,42.18
2023-04-26T19:41:27.404Z,42.85
2023-04-26T19:46:29.736Z,43.87
2023-04-26T19:51:32.261Z,44.91
2023-04-26T19:56:34.949Z,45.47
2023-04-26T20:01:37.447Z,44.58
2023-04-26T20:06:39.602Z,45.10
2023-04-26T20:11:42.317Z,44.88
2023-04-26T20:16:44.714Z,44.67
2023-04-26T20:21:46.912Z,46.95
2023-04-26T20:26:49.059Z,46.16
2023-04-26T20:31:51.440Z,46.87
2023-04-26T20:36:53.747Z,47.12
2023-04-26T20:41:55.999Z,47.36
2023-04-26T20:46:58.706Z,48.15
2023-04-26T20:52:01.040Z,48.09
2023-04-26T20:57:03.919Z,49.97
2023-04-26T21:02:07.862Z,49.16
2023-04-26T21:07:10.928Z,49.71
2023-04-26T21:12:13.105Z,50.66
2023-04-26T21:17:16.127Z,51.10
2023-04-26T21:22:18.324Z,52.13
2023-04-26T21:27:20.505Z,53.33
2023-04-26T21:32:22.643Z,54.27
2023-04-26T21:37:24.877Z,54.98
2023-04-26T21:42:27.130Z,56.24
2023-04-26T21:47:29.282Z,56.85
2023-04-26T21:52:31.802Z,57.91
2023-04-26T21:57:33.989Z,58.53
2023-04-26T22:02:36.390Z,59.16
2023-04-26T22:07:38.844Z,59.60
2023-04-26T22:12:41.250Z,60.04
2023-04-26T22:17:43.481Z,60.67
2023-04-26T22:22:46.021Z,58.01
2023-04-26T22:27:48.510Z,58.83
2023-04-26T22:32:53.738Z,59.87
2023-04-26T22:37:56.188Z,59.45
2023-04-26T22:42:58.336Z,59.91
2023-04-26T22:48:00.857Z,57.46
2023-04-26T22:53:03.155Z,57.70
2023-04-26T22:58:05.330Z,57.74
2023-04-26T23:03:07.628Z,59.37
2023-04-26T23:08:09.929Z,60.83
2023-04-26T23:13:12.110Z,62.77
2023-04-26T23:18:14.500Z,63.32
2023-04-26T23:23:16.603Z,64.28
2023-04-26T23:28:18.698Z,63.97
2023-04-26T23:33:20.985Z,65.48
2023-04-26T23:38:23.207Z,64.42
2023-04-26T23:43:25.502Z,62.12
2023-04-26T23:48:27.697Z,61.60
2023-04-26T23:53:29.885Z,61.15
2023-04-26T23:58:32.093Z,60.04
